sensor_id;sensor_type;location;lat;lon;timestamp;temperature;humidity
6256;DHT22;3161;48.794;9.784;2022-07-06T00:00:08;16.60;99.90
6256;DHT22;3161;48.794;9.784;2022-07-06T00:02:36;16.70;99.90
6256;DHT22;3161;48.794;9.784;2022-07-06T00:05:04;16.70;99.90
6256;DHT22;3161;48.794;9.784;2022-07-06T00:07:32;16.60;99.90
6256;DHT22;3161;48.794;9.784;2022-07-06T00:09:59;16.60;99.90
6256;DHT22;3161;48.794;9.784;2022-07-06T00:12:27;16.60;99.90
6256;DHT22;3161;48.794;9.784;2022-07-06T00:14:54;16.60;99.90
6256;DHT22;3161;48.794;9.784;2022-07-06T00:17:22;16.60;99.90
6256;DHT22;3161;48.794;9.784;2022-07-06T00:19:49;16.60;99.90
6256;DHT22;3161;48.794;9.784;2022-07-06T00:22:17;16.60;99.90
6256;DHT22;3161;48.794;9.784;2022-07-06T00:24:44;16.60;99.90
6256;DHT22;3161;48.794;9.784;2022-07-06T00:27:12;16.50;99.90
6256;DHT22;3161;48.794;9.784;2022-07-06T00:29:39;16.50;99.90
6256;DHT22;3161;48.794;9.784;2022-07-06T00:32:09;16.40;99.90
6256;DHT22;3161;48.794;9.784;2022-07-06T00:34:38;16.40;99.90
6256;DHT22;3161;48.794;9.784;2022-07-06T00:37:07;16.40;99.90
6256;DHT22;3161;48.794;9.784;2022-07-06T00:39:34;16.30;99.90
6256;DHT22;3161;48.794;9.784;2022-07-06T00:42:02;16.30;99.90
6256;DHT22;3161;48.794;9.784;2022-07-06T00:44:30;16.30;99.90
6256;DHT22;3161;48.794;9.784;2022-07-06T00:46:59;16.20;99.90
6256;DHT22;3161;48.794;9.784;2022-07-06T00:49:27;16.20;99.90
6256;DHT22;3161;48.794;9.784;2022-07-06T00:52:12;16.10;99.90
6256;DHT22;3161;48.794;9.784;2022-07-06T00:54:41;16.10;99.90
6256;DHT22;3161;48.794;9.784;2022-07-06T00:57:14;16.10;99.90
6256;DHT22;3161;48.794;9.784;2022-07-06T00:59:43;16.00;99.90
6256;DHT22;3161;48.794;9.784;2022-07-06T01:02:10;16.00;99.90
6256;DHT22;3161;48.794;9.784;2022-07-06T01:04:38;15.90;99.90
6256;DHT22;3161;48.794;9.784;2022-07-06T01:07:05;15.80;99.90
6256;DHT22;3161;48.794;9.784;2022-07-06T01:09:33;15.70;99.90
6256;DHT22;3161;48.794;9.784;2022-07-06T01:12:00;15.60;99.90
6256;DHT22;3161;48.794;9.784;2022-07-06T01:14:28;15.50;99.90
6256;DHT22;3161;48.794;9.784;2022-07-06T01:16:56;15.40;99.90
6256;DHT22;3161;48.794;9.784;2022-07-06T01:19:23;15.30;99.90
6256;DHT22;3161;48.794;9.784;2022-07-06T01:21:51;15.20;99.90
6256;DHT22;3161;48.794;9.784;2022-07-06T01:24:19;15.20;99.90
6256;DHT22;3161;48.794;9.784;2022-07-06T01:26:47;15.20;99.90
6256;DHT22;3161;48.794;9.784;2022-07-06T01:29:15;15.20;99.90
6256;DHT22;3161;48.794;9.784;2022-07-06T01:31:50;15.30;99.90
6256;DHT22;3161;48.794;9.784;2022-07-06T01:34:18;15.30;99.90
6256;DHT22;3161;48.794;9.784;2022-07-06T01:36:46;15.30;99.90
6256;DHT22;3161;48.794;9.784;2022-07-06T01:39:13;15.30;99.90
6256;DHT22;3161;48.794;9.784;2022-07-06T01:41:41;15.30;99.90
6256;DHT22;3161;48.794;9.784;2022-07-06T01:44:09;15.30;99.90
6256;DHT22;3161;48.794;9.784;2022-07-06T01:46:37;15.30;99.90
6256;DHT22;3161;48.794;9.784;2022-07-06T01:49:05;15.30;99.90
6256;DHT22;3161;48.794;9.784;2022-07-06T01:51:33;15.30;99.90
6256;DHT22;3161;48.794;9.784;2022-07-06T01:54:00;15.20;99.90
6256;DHT22;3161;48.794;9.784;2022-07-06T01:56:28;15.20;99.90
6256;DHT22;3161;48.794;9.784;2022-07-06T01:58:55;15.20;99.90
6256;DHT22;3161;48.794;9.784;2022-07-06T02:01:24;15.20;99.90
6256;DHT22;3161;48.794;9.784;2022-07-06T02:03:51;15.10;99.90
6256;DHT22;3161;48.794;9.784;2022-07-06T02:06:20;15.10;99.90
6256;DHT22;3161;48.794;9.784;2022-07-06T02:08:48;15.00;99.90
6256;DHT22;3161;48.794;9.784;2022-07-06T02:11:17;15.10;99.90
6256;DHT22;3161;48.794;9.784;2022-07-06T02:13:44;15.00;99.90
6256;DHT22;3161;48.794;9.784;2022-07-06T02:16:12;15.00;99.90
6256;DHT22;3161;48.794;9.784;2022-07-06T02:18:40;14.90;99.90
6256;DHT22;3161;48.794;9.784;2022-07-06T02:21:08;14.90;99.90
6256;DHT22;3161;48.794;9.784;2022-07-06T02:23:35;14.90;99.90
6256;DHT22;3161;48.794;9.784;2022-07-06T02:26:03;14.80;99.90
6256;DHT22;3161;48.794;9.784;2022-07-06T02:28:31;14.90;99.90
6256;DHT22;3161;48.794;9.784;2022-07-06T02:30:58;14.80;99.90
6256;DHT22;3161;48.794;9.784;2022-07-06T02:33:26;14.90;99.90
6256;DHT22;3161;48.794;9.784;2022-07-06T02:35:54;14.90;99.90
6256;DHT22;3161;48.794;9.784;2022-07-06T02:38:21;14.90;99.90
6256;DHT22;3161;48.794;9.784;2022-07-06T02:40:49;14.90;99.90
6256;DHT22;3161;48.794;9.784;2022-07-06T02:43:16;14.80;99.90
6256;DHT22;3161;48.794;9.784;2022-07-06T02:45:44;14.80;99.90
6256;DHT22;3161;48.794;9.784;2022-07-06T02:48:12;14.80;99.90
6256;DHT22;3161;48.794;9.784;2022-07-06T02:50:39;14.80;99.90
6256;DHT22;3161;48.794;9.784;2022-07-06T02:53:07;14.80;99.90
6256;DHT22;3161;48.794;9.784;2022-07-06T02:55:34;14.80;99.90
6256;DHT22;3161;48.794;9.784;2022-07-06T02:58:02;14.80;99.90
6256;DHT22;3161;48.794;9.784;2022-07-06T03:00:30;14.80;99.90
6256;DHT22;3161;48.794;9.784;2022-07-06T03:02:57;14.70;99.90
6256;DHT22;3161;48.794;9.784;2022-07-06T03:05:25;14.70;99.90
6256;DHT22;3161;48.794;9.784;2022-07-06T03:07:52;14.70;99.90
6256;DHT22;3161;48.794;9.784;2022-07-06T03:10:20;14.70;99.90
6256;DHT22;3161;48.794;9.784;2022-07-06T03:12:47;14.60;99.90
6256;DHT22;3161;48.794;9.784;2022-07-06T03:15:15;14.60;99.90
6256;DHT22;3161;48.794;9.784;2022-07-06T03:17:42;14.60;99.90
6256;DHT22;3161;48.794;9.784;2022-07-06T03:20:11;14.60;99.90
6256;DHT22;3161;48.794;9.784;2022-07-06T03:22:38;14.60;99.90
6256;DHT22;3161;48.794;9.784;2022-07-06T03:25:06;14.60;99.90
6256;DHT22;3161;48.794;9.784;2022-07-06T03:27:34;14.60;99.90
6256;DHT22;3161;48.794;9.784;2022-07-06T03:30:03;14.60;99.90
6256;DHT22;3161;48.794;9.784;2022-07-06T03:32:30;14.50;99.90
6256;DHT22;3161;48.794;9.784;2022-07-06T03:34:58;14.50;99.90
6256;DHT22;3161;48.794;9.784;2022-07-06T03:37:25;14.50;99.90
6256;DHT22;3161;48.794;9.784;2022-07-06T03:39:53;14.50;99.90
6256;DHT22;3161;48.794;9.784;2022-07-06T03:42:20;14.50;99.90
6256;DHT22;3161;48.794;9.784;2022-07-06T03:44:48;14.50;99.90
6256;DHT22;3161;48.794;9.784;2022-07-06T03:47:15;14.50;99.90
6256;DHT22;3161;48.794;9.784;2022-07-06T03:49:43;14.50;99.90
6256;DHT22;3161;48.794;9.784;2022-07-06T03:52:10;14.40;99.90
6256;DHT22;3161;48.794;9.784;2022-07-06T03:54:38;14.40;99.90
6256;DHT22;3161;48.794;9.784;2022-07-06T03:57:05;14.40;99.90
6256;DHT22;3161;48.794;9.784;2022-07-06T03:59:33;14.40;99.90
6256;DHT22;3161;48.794;9.784;2022-07-06T04:02:00;14.40;99.90
6256;DHT22;3161;48.794;9.784;2022-07-06T04:04:28;14.40;99.90
6256;DHT22;3161;48.794;9.784;2022-07-06T04:06:55;14.30;99.90
6256;DHT22;3161;48.794;9.784;2022-07-06T04:09:23;14.40;99.90
6256;DHT22;3161;48.794;9.784;2022-07-06T04:11:50;14.40;99.90
6256;DHT22;3161;48.794;9.784;2022-07-06T04:14:18;14.40;99.90
6256;DHT22;3161;48.794;9.784;2022-07-06T04:16:46;14.40;99.90
6256;DHT22;3161;48.794;9.784;2022-07-06T04:19:13;14.40;99.90
6256;DHT22;3161;48.794;9.784;2022-07-06T04:21:41;14.40;99.90
6256;DHT22;3161;48.794;9.784;2022-07-06T04:24:08;14.50;99.90
6256;DHT22;3161;48.794;9.784;2022-07-06T04:26:36;14.50;99.90
6256;DHT22;3161;48.794;9.784;2022-07-06T04:29:04;14.50;99.90
6256;DHT22;3161;48.794;9.784;2022-07-06T04:31:31;14.50;99.90
6256;DHT22;3161;48.794;9.784;2022-07-06T04:33:59;14.40;99.90
6256;DHT22;3161;48.794;9.784;2022-07-06T04:36:26;14.40;99.90
6256;DHT22;3161;48.794;9.784;2022-07-06T04:38:54;14.40;99.90
6256;DHT22;3161;48.794;9.784;2022-07-06T04:41:21;14.40;99.90
6256;DHT22;3161;48.794;9.784;2022-07-06T04:43:49;14.40;99.90
6256;DHT22;3161;48.794;9.784;2022-07-06T04:46:16;14.40;99.90
6256;DHT22;3161;48.794;9.784;2022-07-06T04:48:45;14.40;99.90
6256;DHT22;3161;48.794;9.784;2022-07-06T04:51:13;14.40;99.90
6256;DHT22;3161;48.794;9.784;2022-07-06T04:53:40;14.50;99.90
6256;DHT22;3161;48.794;9.784;2022-07-06T04:56:08;14.50;99.90
6256;DHT22;3161;48.794;9.784;2022-07-06T04:58:35;14.60;99.90
6256;DHT22;3161;48.794;9.784;2022-07-06T05:01:03;14.70;99.90
6256;DHT22;3161;48.794;9.784;2022-07-06T05:03:31;14.70;99.90
6256;DHT22;3161;48.794;9.784;2022-07-06T05:05:59;14.80;99.90
6256;DHT22;3161;48.794;9.784;2022-07-06T05:08:27;14.80;99.90
6256;DHT22;3161;48.794;9.784;2022-07-06T05:10:54;14.90;99.90
6256;DHT22;3161;48.794;9.784;2022-07-06T05:13:22;14.90;99.90
6256;DHT22;3161;48.794;9.784;2022-07-06T05:15:49;15.00;99.90
6256;DHT22;3161;48.794;9.784;2022-07-06T05:18:17;15.00;99.90
6256;DHT22;3161;48.794;9.784;2022-07-06T05:20:44;15.10;99.90
6256;DHT22;3161;48.794;9.784;2022-07-06T05:23:13;15.10;99.90
6256;DHT22;3161;48.794;9.784;2022-07-06T05:25:41;15.20;99.90
6256;DHT22;3161;48.794;9.784;2022-07-06T05:28:08;15.30;99.90
6256;DHT22;3161;48.794;9.784;2022-07-06T05:30:36;15.50;99.90
6256;DHT22;3161;48.794;9.784;2022-07-06T05:33:03;15.60;99.90
6256;DHT22;3161;48.794;9.784;2022-07-06T05:35:31;15.70;99.90
6256;DHT22;3161;48.794;9.784;2022-07-06T05:37:58;15.80;99.90
6256;DHT22;3161;48.794;9.784;2022-07-06T05:40:26;15.90;99.90
6256;DHT22;3161;48.794;9.784;2022-07-06T05:42:54;16.00;99.90
6256;DHT22;3161;48.794;9.784;2022-07-06T05:45:21;16.10;99.90
6256;DHT22;3161;48.794;9.784;2022-07-06T05:47:49;16.10;99.90
6256;DHT22;3161;48.794;9.784;2022-07-06T05:50:35;16.20;99.90
6256;DHT22;3161;48.794;9.784;2022-07-06T05:53:04;16.30;99.90
6256;DHT22;3161;48.794;9.784;2022-07-06T05:55:32;16.30;99.90
6256;DHT22;3161;48.794;9.784;2022-07-06T05:58:00;16.40;99.90
6256;DHT22;3161;48.794;9.784;2022-07-06T06:00:35;16.50;99.90
6256;DHT22;3161;48.794;9.784;2022-07-06T06:03:03;16.60;99.90
6256;DHT22;3161;48.794;9.784;2022-07-06T06:05:30;16.70;99.90
6256;DHT22;3161;48.794;9.784;2022-07-06T06:07:58;16.80;99.90
6256;DHT22;3161;48.794;9.784;2022-07-06T06:10:26;16.90;99.90
6256;DHT22;3161;48.794;9.784;2022-07-06T06:12:54;17.00;99.90
6256;DHT22;3161;48.794;9.784;2022-07-06T06:15:21;17.00;99.90
6256;DHT22;3161;48.794;9.784;2022-07-06T06:17:49;17.10;99.90
6256;DHT22;3161;48.794;9.784;2022-07-06T06:20:16;17.20;99.90
6256;DHT22;3161;48.794;9.784;2022-07-06T06:22:48;17.40;99.90
6256;DHT22;3161;48.794;9.784;2022-07-06T06:25:42;17.50;99.90
6256;DHT22;3161;48.794;9.784;2022-07-06T06:27:50;17.60;99.90
6256;DHT22;3161;48.794;9.784;2022-07-06T06:30:17;17.70;99.90
6256;DHT22;3161;48.794;9.784;2022-07-06T06:32:45;17.80;99.90
6256;DHT22;3161;48.794;9.784;2022-07-06T06:35:13;17.90;99.90
6256;DHT22;3161;48.794;9.784;2022-07-06T06:37:41;18.10;99.90
6256;DHT22;3161;48.794;9.784;2022-07-06T06:40:10;18.20;99.90
6256;DHT22;3161;48.794;9.784;2022-07-06T06:42:38;18.40;99.90
6256;DHT22;3161;48.794;9.784;2022-07-06T06:45:06;18.50;99.90
6256;DHT22;3161;48.794;9.784;2022-07-06T06:47:34;18.70;99.90
6256;DHT22;3161;48.794;9.784;2022-07-06T06:50:02;18.80;99.90
6256;DHT22;3161;48.794;9.784;2022-07-06T06:52:29;18.90;99.90
6256;DHT22;3161;48.794;9.784;2022-07-06T06:54:57;19.00;99.90
6256;DHT22;3161;48.794;9.784;2022-07-06T06:57:24;19.20;99.90
6256;DHT22;3161;48.794;9.784;2022-07-06T06:59:52;19.30;99.90
6256;DHT22;3161;48.794;9.784;2022-07-06T07:02:20;19.40;99.90
6256;DHT22;3161;48.794;9.784;2022-07-06T07:04:47;19.60;99.90
6256;DHT22;3161;48.794;9.784;2022-07-06T07:07:15;19.80;99.90
6256;DHT22;3161;48.794;9.784;2022-07-06T07:09:42;19.90;99.90
6256;DHT22;3161;48.794;9.784;2022-07-06T07:12:10;20.00;99.90
6256;DHT22;3161;48.794;9.784;2022-07-06T07:14:40;20.00;99.90
6256;DHT22;3161;48.794;9.784;2022-07-06T07:17:07;20.10;99.90
6256;DHT22;3161;48.794;9.784;2022-07-06T07:19:35;20.20;99.90
6256;DHT22;3161;48.794;9.784;2022-07-06T07:22:03;20.30;99.90
6256;DHT22;3161;48.794;9.784;2022-07-06T07:24:30;20.40;99.90
6256;DHT22;3161;48.794;9.784;2022-07-06T07:26:58;20.50;99.90
6256;DHT22;3161;48.794;9.784;2022-07-06T07:29:25;20.60;99.90
6256;DHT22;3161;48.794;9.784;2022-07-06T07:31:53;20.70;99.90
6256;DHT22;3161;48.794;9.784;2022-07-06T07:34:20;20.80;99.90
6256;DHT22;3161;48.794;9.784;2022-07-06T07:36:48;20.80;99.90
6256;DHT22;3161;48.794;9.784;2022-07-06T07:39:15;21.00;99.90
6256;DHT22;3161;48.794;9.784;2022-07-06T07:41:43;21.10;99.90
6256;DHT22;3161;48.794;9.784;2022-07-06T07:44:10;21.20;99.90
6256;DHT22;3161;48.794;9.784;2022-07-06T07:46:38;21.30;99.90
6256;DHT22;3161;48.794;9.784;2022-07-06T07:49:05;21.40;99.90
6256;DHT22;3161;48.794;9.784;2022-07-06T07:51:34;21.40;99.90
6256;DHT22;3161;48.794;9.784;2022-07-06T07:54:01;21.50;99.90
6256;DHT22;3161;48.794;9.784;2022-07-06T07:56:29;21.50;99.90
6256;DHT22;3161;48.794;9.784;2022-07-06T07:58:56;21.60;99.90
6256;DHT22;3161;48.794;9.784;2022-07-06T08:01:24;21.70;99.90
6256;DHT22;3161;48.794;9.784;2022-07-06T08:03:51;21.70;99.90
6256;DHT22;3161;48.794;9.784;2022-07-06T08:06:19;21.80;99.90
6256;DHT22;3161;48.794;9.784;2022-07-06T08:08:46;22.00;99.90
6256;DHT22;3161;48.794;9.784;2022-07-06T08:11:14;22.10;99.90
6256;DHT22;3161;48.794;9.784;2022-07-06T08:13:42;22.20;99.90
6256;DHT22;3161;48.794;9.784;2022-07-06T08:16:10;22.30;99.90
6256;DHT22;3161;48.794;9.784;2022-07-06T08:18:37;22.50;99.90
6256;DHT22;3161;48.794;9.784;2022-07-06T08:21:05;22.60;99.90
6256;DHT22;3161;48.794;9.784;2022-07-06T08:23:32;22.80;99.90
6256;DHT22;3161;48.794;9.784;2022-07-06T08:26:02;23.10;99.90
6256;DHT22;3161;48.794;9.784;2022-07-06T08:28:30;23.20;99.90
6256;DHT22;3161;48.794;9.784;2022-07-06T08:30:57;23.40;99.90
6256;DHT22;3161;48.794;9.784;2022-07-06T08:33:25;23.50;99.90
6256;DHT22;3161;48.794;9.784;2022-07-06T08:35:53;23.50;99.90
6256;DHT22;3161;48.794;9.784;2022-07-06T08:38:20;23.60;99.90
6256;DHT22;3161;48.794;9.784;2022-07-06T08:40:50;23.70;99.90
6256;DHT22;3161;48.794;9.784;2022-07-06T08:43:18;23.80;99.90
6256;DHT22;3161;48.794;9.784;2022-07-06T08:45:46;23.90;99.90
6256;DHT22;3161;48.794;9.784;2022-07-06T08:48:16;24.00;99.80
6256;DHT22;3161;48.794;9.784;2022-07-06T08:50:45;24.10;99.90
6256;DHT22;3161;48.794;9.784;2022-07-06T08:53:12;24.20;99.90
6256;DHT22;3161;48.794;9.784;2022-07-06T08:55:40;24.20;99.90
6256;DHT22;3161;48.794;9.784;2022-07-06T08:58:08;24.40;99.90
6256;DHT22;3161;48.794;9.784;2022-07-06T09:00:36;24.50;96.50
6256;DHT22;3161;48.794;9.784;2022-07-06T09:03:05;24.50;97.40
6256;DHT22;3161;48.794;9.784;2022-07-06T09:05:33;24.60;99.40
6256;DHT22;3161;48.794;9.784;2022-07-06T09:08:02;24.70;97.90
6256;DHT22;3161;48.794;9.784;2022-07-06T09:10:30;24.80;98.10
6256;DHT22;3161;48.794;9.784;2022-07-06T09:13:05;24.80;94.80
6256;DHT22;3161;48.794;9.784;2022-07-06T09:15:35;24.80;94.70
6256;DHT22;3161;48.794;9.784;2022-07-06T09:18:05;24.70;93.30
6256;DHT22;3161;48.794;9.784;2022-07-06T09:20:34;24.60;92.20
6256;DHT22;3161;48.794;9.784;2022-07-06T09:23:04;24.50;93.10
6256;DHT22;3161;48.794;9.784;2022-07-06T09:25:33;24.50;94.90
6256;DHT22;3161;48.794;9.784;2022-07-06T09:28:02;24.60;92.00
6256;DHT22;3161;48.794;9.784;2022-07-06T09:30:31;24.60;92.50
6256;DHT22;3161;48.794;9.784;2022-07-06T09:32:59;24.60;93.20
6256;DHT22;3161;48.794;9.784;2022-07-06T09:38:02;24.70;92.70
6256;DHT22;3161;48.794;9.784;2022-07-06T09:40:35;24.70;91.60
6256;DHT22;3161;48.794;9.784;2022-07-06T09:43:22;24.70;91.90
6256;DHT22;3161;48.794;9.784;2022-07-06T09:45:52;24.70;93.00
6256;DHT22;3161;48.794;9.784;2022-07-06T09:48:25;24.80;94.70
6256;DHT22;3161;48.794;9.784;2022-07-06T09:50:55;24.90;93.70
6256;DHT22;3161;48.794;9.784;2022-07-06T09:53:24;24.80;90.70
6256;DHT22;3161;48.794;9.784;2022-07-06T09:55:54;24.80;90.50
6256;DHT22;3161;48.794;9.784;2022-07-06T09:58:22;24.70;92.10
6256;DHT22;3161;48.794;9.784;2022-07-06T10:00:50;24.60;91.40
6256;DHT22;3161;48.794;9.784;2022-07-06T10:03:19;24.60;91.40
6256;DHT22;3161;48.794;9.784;2022-07-06T10:05:47;24.70;90.00
6256;DHT22;3161;48.794;9.784;2022-07-06T10:08:17;24.70;92.90
6256;DHT22;3161;48.794;9.784;2022-07-06T10:10:45;24.80;91.40
6256;DHT22;3161;48.794;9.784;2022-07-06T10:13:14;24.90;91.80
6256;DHT22;3161;48.794;9.784;2022-07-06T10:15:44;25.00;86.00
6256;DHT22;3161;48.794;9.784;2022-07-06T10:18:12;24.90;87.20
6256;DHT22;3161;48.794;9.784;2022-07-06T10:20:39;24.90;87.10
6256;DHT22;3161;48.794;9.784;2022-07-06T10:23:08;24.80;89.10
6256;DHT22;3161;48.794;9.784;2022-07-06T10:25:36;24.80;88.50
6256;DHT22;3161;48.794;9.784;2022-07-06T10:28:06;24.90;89.60
6256;DHT22;3161;48.794;9.784;2022-07-06T10:30:36;24.90;88.00
6256;DHT22;3161;48.794;9.784;2022-07-06T10:33:04;24.90;90.00
6256;DHT22;3161;48.794;9.784;2022-07-06T10:35:32;25.00;88.00
6256;DHT22;3161;48.794;9.784;2022-07-06T10:38:05;25.00;87.80
6256;DHT22;3161;48.794;9.784;2022-07-06T10:40:34;24.90;87.80
6256;DHT22;3161;48.794;9.784;2022-07-06T10:43:20;25.00;90.60
6256;DHT22;3161;48.794;9.784;2022-07-06T10:45:50;25.00;88.00
6256;DHT22;3161;48.794;9.784;2022-07-06T10:48:19;25.20;91.00
6256;DHT22;3161;48.794;9.784;2022-07-06T10:50:52;25.40;89.70
6256;DHT22;3161;48.794;9.784;2022-07-06T10:53:27;25.40;86.80
6256;DHT22;3161;48.794;9.784;2022-07-06T10:55:57;25.20;87.00
6256;DHT22;3161;48.794;9.784;2022-07-06T10:58:38;25.20;91.30
6256;DHT22;3161;48.794;9.784;2022-07-06T11:01:09;25.20;90.50
6256;DHT22;3161;48.794;9.784;2022-07-06T11:06:19;25.40;88.90
6256;DHT22;3161;48.794;9.784;2022-07-06T11:09:07;25.50;90.30
6256;DHT22;3161;48.794;9.784;2022-07-06T11:11:41;25.60;89.90
6256;DHT22;3161;48.794;9.784;2022-07-06T11:14:16;25.60;88.00
6256;DHT22;3161;48.794;9.784;2022-07-06T11:19:22;25.70;90.00
6256;DHT22;3161;48.794;9.784;2022-07-06T11:21:57;25.80;89.00
6256;DHT22;3161;48.794;9.784;2022-07-06T11:24:28;25.90;82.30
6256;DHT22;3161;48.794;9.784;2022-07-06T11:26:57;25.90;81.50
6256;DHT22;3161;48.794;9.784;2022-07-06T11:29:27;25.80;81.60
6256;DHT22;3161;48.794;9.784;2022-07-06T11:31:57;25.70;79.70
6256;DHT22;3161;48.794;9.784;2022-07-06T11:34:29;25.60;80.90
6256;DHT22;3161;48.794;9.784;2022-07-06T11:37:03;25.60;81.90
6256;DHT22;3161;48.794;9.784;2022-07-06T11:39:28;25.60;81.50
6256;DHT22;3161;48.794;9.784;2022-07-06T11:41:56;25.60;81.70
6256;DHT22;3161;48.794;9.784;2022-07-06T11:44:25;25.70;78.70
6256;DHT22;3161;48.794;9.784;2022-07-06T11:46:52;25.70;79.60
6256;DHT22;3161;48.794;9.784;2022-07-06T11:49:22;25.70;79.70
6256;DHT22;3161;48.794;9.784;2022-07-06T11:51:49;25.80;80.40
6256;DHT22;3161;48.794;9.784;2022-07-06T11:54:18;25.90;83.70
6256;DHT22;3161;48.794;9.784;2022-07-06T11:56:57;26.10;85.20
6256;DHT22;3161;48.794;9.784;2022-07-06T11:59:35;26.30;82.50
6256;DHT22;3161;48.794;9.784;2022-07-06T12:02:05;26.50;83.20
6256;DHT22;3161;48.794;9.784;2022-07-06T12:04:35;26.80;83.40
6256;DHT22;3161;48.794;9.784;2022-07-06T12:07:05;27.10;80.50
6256;DHT22;3161;48.794;9.784;2022-07-06T12:09:35;27.30;80.80
6256;DHT22;3161;48.794;9.784;2022-07-06T12:12:04;27.40;79.90
6256;DHT22;3161;48.794;9.784;2022-07-06T12:14:33;27.40;74.70
6256;DHT22;3161;48.794;9.784;2022-07-06T12:17:14;27.50;75.90
6256;DHT22;3161;48.794;9.784;2022-07-06T12:19:42;27.60;74.20
6256;DHT22;3161;48.794;9.784;2022-07-06T12:22:11;27.70;71.50
6256;DHT22;3161;48.794;9.784;2022-07-06T12:24:43;27.70;70.00
6256;DHT22;3161;48.794;9.784;2022-07-06T12:27:18;27.60;75.30
6256;DHT22;3161;48.794;9.784;2022-07-06T12:29:47;27.80;75.10
6256;DHT22;3161;48.794;9.784;2022-07-06T12:32:20;27.90;75.00
6256;DHT22;3161;48.794;9.784;2022-07-06T12:35:06;28.00;75.30
6256;DHT22;3161;48.794;9.784;2022-07-06T12:37:34;28.50;72.10
6256;DHT22;3161;48.794;9.784;2022-07-06T12:40:12;29.20;70.50
6256;DHT22;3161;48.794;9.784;2022-07-06T12:42:47;30.00;63.00
6256;DHT22;3161;48.794;9.784;2022-07-06T12:45:15;30.30;60.70
6256;DHT22;3161;48.794;9.784;2022-07-06T12:47:57;30.30;61.30
6256;DHT22;3161;48.794;9.784;2022-07-06T12:50:39;30.60;59.90
6256;DHT22;3161;48.794;9.784;2022-07-06T12:53:25;31.00;60.90
6256;DHT22;3161;48.794;9.784;2022-07-06T12:56:10;31.70;59.10
6256;DHT22;3161;48.794;9.784;2022-07-06T12:58:37;31.70;57.20
6256;DHT22;3161;48.794;9.784;2022-07-06T13:01:05;31.30;58.20
6256;DHT22;3161;48.794;9.784;2022-07-06T13:03:40;31.20;59.40
6256;DHT22;3161;48.794;9.784;2022-07-06T13:06:07;31.00;57.40
6256;DHT22;3161;48.794;9.784;2022-07-06T13:08:35;30.80;58.50
6256;DHT22;3161;48.794;9.784;2022-07-06T13:11:03;30.60;57.70
6256;DHT22;3161;48.794;9.784;2022-07-06T13:13:30;30.30;59.80
6256;DHT22;3161;48.794;9.784;2022-07-06T13:15:58;30.20;60.00
6256;DHT22;3161;48.794;9.784;2022-07-06T13:18:25;30.20;60.60
6256;DHT22;3161;48.794;9.784;2022-07-06T13:20:53;30.20;58.30
6256;DHT22;3161;48.794;9.784;2022-07-06T13:23:20;30.10;59.70
6256;DHT22;3161;48.794;9.784;2022-07-06T13:25:48;29.80;60.00
6256;DHT22;3161;48.794;9.784;2022-07-06T13:28:16;29.50;61.10
6256;DHT22;3161;48.794;9.784;2022-07-06T13:30:43;29.20;62.00
6256;DHT22;3161;48.794;9.784;2022-07-06T13:33:11;29.00;62.40
6256;DHT22;3161;48.794;9.784;2022-07-06T13:35:38;29.00;64.00
6256;DHT22;3161;48.794;9.784;2022-07-06T13:38:06;29.10;63.80
6256;DHT22;3161;48.794;9.784;2022-07-06T13:40:33;29.40;64.40
6256;DHT22;3161;48.794;9.784;2022-07-06T13:43:02;30.20;65.30
6256;DHT22;3161;48.794;9.784;2022-07-06T13:45:30;31.30;60.60
6256;DHT22;3161;48.794;9.784;2022-07-06T13:47:58;32.30;59.20
6256;DHT22;3161;48.794;9.784;2022-07-06T13:50:25;33.50;55.40
6256;DHT22;3161;48.794;9.784;2022-07-06T13:52:54;35.00;52.80
6256;DHT22;3161;48.794;9.784;2022-07-06T13:55:21;36.80;48.80
6256;DHT22;3161;48.794;9.784;2022-07-06T13:57:49;38.20;46.70
6256;DHT22;3161;48.794;9.784;2022-07-06T14:00:17;38.90;43.10
6256;DHT22;3161;48.794;9.784;2022-07-06T14:02:45;38.30;44.00
6256;DHT22;3161;48.794;9.784;2022-07-06T14:05:12;36.70;45.10
6256;DHT22;3161;48.794;9.784;2022-07-06T14:10:08;33.70;48.30
6256;DHT22;3161;48.794;9.784;2022-07-06T14:12:36;32.60;52.80
6256;DHT22;3161;48.794;9.784;2022-07-06T14:15:03;31.80;52.70
6256;DHT22;3161;48.794;9.784;2022-07-06T14:17:31;31.10;53.30
6256;DHT22;3161;48.794;9.784;2022-07-06T14:19:59;30.60;54.60
6256;DHT22;3161;48.794;9.784;2022-07-06T14:22:26;30.10;57.00
6256;DHT22;3161;48.794;9.784;2022-07-06T14:24:54;29.70;58.70
6256;DHT22;3161;48.794;9.784;2022-07-06T14:27:21;29.50;57.90
6256;DHT22;3161;48.794;9.784;2022-07-06T14:29:49;29.30;58.50
6256;DHT22;3161;48.794;9.784;2022-07-06T14:32:17;29.10;59.30
6256;DHT22;3161;48.794;9.784;2022-07-06T14:34:44;28.80;58.30
6256;DHT22;3161;48.794;9.784;2022-07-06T14:37:12;28.60;59.20
6256;DHT22;3161;48.794;9.784;2022-07-06T14:39:39;28.40;60.10
6256;DHT22;3161;48.794;9.784;2022-07-06T14:42:07;28.20;58.30
6256;DHT22;3161;48.794;9.784;2022-07-06T14:44:36;28.00;60.90
6256;DHT22;3161;48.794;9.784;2022-07-06T14:47:04;27.70;59.80
6256;DHT22;3161;48.794;9.784;2022-07-06T14:49:32;27.60;63.40
6256;DHT22;3161;48.794;9.784;2022-07-06T14:51:59;27.40;63.20
6256;DHT22;3161;48.794;9.784;2022-07-06T14:54:27;27.30;61.50
6256;DHT22;3161;48.794;9.784;2022-07-06T14:56:54;27.20;63.50
6256;DHT22;3161;48.794;9.784;2022-07-06T14:59:22;27.10;65.60
6256;DHT22;3161;48.794;9.784;2022-07-06T15:01:49;27.10;63.00
6256;DHT22;3161;48.794;9.784;2022-07-06T15:04:17;27.10;63.80
6256;DHT22;3161;48.794;9.784;2022-07-06T15:06:44;26.90;63.30
6256;DHT22;3161;48.794;9.784;2022-07-06T15:09:12;26.80;63.30
6256;DHT22;3161;48.794;9.784;2022-07-06T15:11:39;26.70;63.00
6256;DHT22;3161;48.794;9.784;2022-07-06T15:14:07;26.60;63.10
6256;DHT22;3161;48.794;9.784;2022-07-06T15:16:36;26.50;65.30
6256;DHT22;3161;48.794;9.784;2022-07-06T15:19:04;26.50;66.50
6256;DHT22;3161;48.794;9.784;2022-07-06T15:21:33;26.50;65.40
6256;DHT22;3161;48.794;9.784;2022-07-06T15:24:00;26.40;64.90
6256;DHT22;3161;48.794;9.784;2022-07-06T15:26:28;26.40;64.40
6256;DHT22;3161;48.794;9.784;2022-07-06T15:28:55;26.30;64.10
6256;DHT22;3161;48.794;9.784;2022-07-06T15:31:23;26.20;64.00
6256;DHT22;3161;48.794;9.784;2022-07-06T15:33:50;26.10;63.50
6256;DHT22;3161;48.794;9.784;2022-07-06T15:36:23;25.90;61.70
6256;DHT22;3161;48.794;9.784;2022-07-06T15:38:51;25.80;62.50
6256;DHT22;3161;48.794;9.784;2022-07-06T15:41:19;25.70;62.30
6256;DHT22;3161;48.794;9.784;2022-07-06T15:43:47;25.40;62.40
6256;DHT22;3161;48.794;9.784;2022-07-06T15:46:16;25.20;64.40
6256;DHT22;3161;48.794;9.784;2022-07-06T15:48:44;25.20;64.10
6256;DHT22;3161;48.794;9.784;2022-07-06T15:51:12;25.10;66.70
6256;DHT22;3161;48.794;9.784;2022-07-06T15:53:40;25.10;65.60
6256;DHT22;3161;48.794;9.784;2022-07-06T15:56:09;25.10;66.10
6256;DHT22;3161;48.794;9.784;2022-07-06T15:58:37;25.10;66.10
6256;DHT22;3161;48.794;9.784;2022-07-06T16:01:04;25.10;66.00
6256;DHT22;3161;48.794;9.784;2022-07-06T16:03:32;25.10;67.00
6256;DHT22;3161;48.794;9.784;2022-07-06T16:06:01;25.00;66.00
6256;DHT22;3161;48.794;9.784;2022-07-06T16:08:28;25.00;64.00
6256;DHT22;3161;48.794;9.784;2022-07-06T16:10:56;24.90;63.40
6256;DHT22;3161;48.794;9.784;2022-07-06T16:13:23;24.80;64.40
6256;DHT22;3161;48.794;9.784;2022-07-06T16:15:51;24.80;64.70
6256;DHT22;3161;48.794;9.784;2022-07-06T16:18:18;24.70;63.30
6256;DHT22;3161;48.794;9.784;2022-07-06T16:20:48;24.80;64.00